QLK321 YSSY-YSCB
Flight info
| Callsign | QLK321 |
|---|---|
| Flight time | 0h 44m |
| Altitude | 14000 |
| Route | WOL H65 CB |
| Aircraft | AT76/M-SDFGIRY/S |
Departure
| Time | 2026-05-05 12:11 |
|---|---|
| Airport | Sydney Kingsford Smith International Airport (YSSY) |
Arrival
| Time | 2026-05-05 12:55 |
|---|---|
| Airport | Canberra Airport (YSCB) |
| Time | Latitude | Longitude | Altitude | Speed | Heading |
|---|---|---|---|---|---|
| 2026-05-05 11:45 | -33.93117 | 151.18227 | 27 ft | 0 kts | 135° |
| 2026-05-05 12:06 | -33.93126 | 151.18228 | 27 ft | 1 kts | 193° |
| 2026-05-05 12:06 | -33.93129 | 151.18220 | 27 ft | 2 kts | 254° |
| 2026-05-05 12:06 | -33.93120 | 151.18178 | 27 ft | 9 kts | 283° |
| 2026-05-05 12:06 | -33.93102 | 151.18079 | 27 ft | 15 kts | 277° |
| 2026-05-05 12:07 | -33.93087 | 151.17973 | 27 ft | 11 kts | 280° |
| 2026-05-05 12:07 | -33.93076 | 151.17897 | 27 ft | 8 kts | 280° |
| 2026-05-05 12:07 | -33.93067 | 151.17835 | 26 ft | 7 kts | 280° |
| 2026-05-05 12:07 | -33.93059 | 151.17780 | 26 ft | 6 kts | 280° |
| 2026-05-05 12:08 | -33.93045 | 151.17733 | 26 ft | 6 kts | 297° |
| 2026-05-05 12:08 | -33.93025 | 151.17687 | 26 ft | 7 kts | 298° |
| 2026-05-05 12:08 | -33.93010 | 151.17618 | 27 ft | 9 kts | 281° |
| 2026-05-05 12:08 | -33.92998 | 151.17544 | 27 ft | 9 kts | 282° |
| 2026-05-05 12:09 | -33.92985 | 151.17471 | 27 ft | 9 kts | 281° |
| 2026-05-05 12:09 | -33.92974 | 151.17396 | 27 ft | 9 kts | 281° |
| 2026-05-05 12:09 | -33.92962 | 151.17320 | 27 ft | 9 kts | 280° |
| 2026-05-05 12:09 | -33.92958 | 151.17244 | 27 ft | 9 kts | 255° |
| 2026-05-05 12:10 | -33.92996 | 151.17191 | 27 ft | 9 kts | 204° |
| 2026-05-05 12:10 | -33.93066 | 151.17193 | 27 ft | 12 kts | 169° |
| 2026-05-05 12:10 | -33.93290 | 151.17252 | 27 ft | 62 kts | 168° |
| 2026-05-05 12:10 | -33.93905 | 151.17411 | 23 ft | 115 kts | 167° |
| 2026-05-05 12:11 | -33.94817 | 151.17656 | 91 ft | 146 kts | 169° |
| 2026-05-05 12:11 | -33.95803 | 151.17991 | 514 ft | 151 kts | 168° |
| 2026-05-05 12:11 | -33.96836 | 151.18141 | 904 ft | 155 kts | 184° |
| 2026-05-05 12:11 | -33.97915 | 151.17997 | 1333 ft | 157 kts | 186° |
| 2026-05-05 12:12 | -33.99061 | 151.17843 | 1613 ft | 172 kts | 186° |
| 2026-05-05 12:12 | -34.00278 | 151.17692 | 1930 ft | 180 kts | 184° |
| 2026-05-05 12:12 | -34.01531 | 151.17566 | 2288 ft | 180 kts | 183° |
| 2026-05-05 12:12 | -34.02781 | 151.17469 | 2624 ft | 180 kts | 180° |
| 2026-05-05 12:13 | -34.03985 | 151.17736 | 2933 ft | 178 kts | 162° |
| 2026-05-05 12:13 | -34.05176 | 151.18196 | 3270 ft | 179 kts | 162° |
| 2026-05-05 12:13 | -34.06354 | 151.18655 | 3594 ft | 180 kts | 162° |
| 2026-05-05 12:13 | -34.07546 | 151.19110 | 3939 ft | 181 kts | 162° |
| 2026-05-05 12:14 | -34.08758 | 151.19548 | 4288 ft | 181 kts | 164° |
| 2026-05-05 12:14 | -34.09963 | 151.19960 | 4634 ft | 182 kts | 164° |
| 2026-05-05 12:14 | -34.11186 | 151.20376 | 4981 ft | 183 kts | 164° |
| 2026-05-05 12:14 | -34.12422 | 151.20787 | 5303 ft | 184 kts | 165° |
| 2026-05-05 12:15 | -34.13645 | 151.21193 | 5634 ft | 184 kts | 165° |
| 2026-05-05 12:15 | -34.14884 | 151.21605 | 5968 ft | 184 kts | 165° |
| 2026-05-05 12:15 | -34.16117 | 151.22018 | 6291 ft | 184 kts | 165° |
| 2026-05-05 12:15 | -34.17334 | 151.22424 | 6602 ft | 185 kts | 165° |
| 2026-05-05 12:16 | -34.18573 | 151.22835 | 6884 ft | 187 kts | 166° |
| 2026-05-05 12:16 | -34.19844 | 151.23057 | 7146 ft | 185 kts | 193° |
| 2026-05-05 12:16 | -34.20943 | 151.22264 | 7408 ft | 188 kts | 222° |
| 2026-05-05 12:16 | -34.21834 | 151.21143 | 7703 ft | 188 kts | 228° |
| 2026-05-05 12:17 | -34.22672 | 151.19943 | 8005 ft | 189 kts | 230° |
| 2026-05-05 12:17 | -34.23511 | 151.18705 | 8298 ft | 190 kts | 230° |
| 2026-05-05 12:17 | -34.24353 | 151.17474 | 8594 ft | 190 kts | 230° |
| 2026-05-05 12:17 | -34.25200 | 151.16244 | 8895 ft | 190 kts | 230° |
| 2026-05-05 12:18 | -34.26048 | 151.15034 | 9177 ft | 191 kts | 229° |
| 2026-05-05 12:18 | -34.26914 | 151.13811 | 9467 ft | 191 kts | 229° |
| 2026-05-05 12:18 | -34.27784 | 151.12586 | 9755 ft | 191 kts | 229° |
| 2026-05-05 12:18 | -34.28644 | 151.11378 | 10037 ft | 192 kts | 229° |
| 2026-05-05 12:19 | -34.29519 | 151.10150 | 10292 ft | 192 kts | 229° |
| 2026-05-05 12:19 | -34.30394 | 151.08920 | 10543 ft | 193 kts | 229° |
| 2026-05-05 12:19 | -34.31257 | 151.07701 | 10796 ft | 192 kts | 230° |
| 2026-05-05 12:19 | -34.32128 | 151.06472 | 11063 ft | 191 kts | 229° |
| 2026-05-05 12:20 | -34.32999 | 151.05237 | 11313 ft | 191 kts | 229° |
| 2026-05-05 12:20 | -34.33860 | 151.04024 | 11550 ft | 192 kts | 230° |
| 2026-05-05 12:20 | -34.34724 | 151.02810 | 11801 ft | 192 kts | 230° |
| 2026-05-05 12:20 | -34.35595 | 151.01583 | 12056 ft | 191 kts | 230° |
| 2026-05-05 12:21 | -34.36452 | 151.00371 | 12298 ft | 192 kts | 230° |
| 2026-05-05 12:21 | -34.37312 | 150.99154 | 12541 ft | 192 kts | 230° |
| 2026-05-05 12:21 | -34.38238 | 150.98030 | 12777 ft | 192 kts | 223° |
| 2026-05-05 12:21 | -34.39201 | 150.97020 | 13015 ft | 192 kts | 221° |
| 2026-05-05 12:22 | -34.40192 | 150.96006 | 13253 ft | 192 kts | 221° |
| 2026-05-05 12:22 | -34.41192 | 150.94982 | 13467 ft | 193 kts | 222° |
| 2026-05-05 12:22 | -34.42138 | 150.93986 | 13687 ft | 193 kts | 223° |
| 2026-05-05 12:22 | -34.42963 | 150.93100 | 13840 ft | 196 kts | 223° |
| 2026-05-05 12:23 | -34.44023 | 150.91950 | 13935 ft | 203 kts | 223° |
| 2026-05-05 12:23 | -34.45101 | 150.90779 | 13974 ft | 212 kts | 223° |
| 2026-05-05 12:23 | -34.46223 | 150.89560 | 13994 ft | 220 kts | 223° |
| 2026-05-05 12:23 | -34.47385 | 150.88300 | 14002 ft | 227 kts | 223° |
| 2026-05-05 12:24 | -34.48570 | 150.87014 | 14008 ft | 233 kts | 223° |
| 2026-05-05 12:24 | -34.49784 | 150.85697 | 14017 ft | 238 kts | 223° |
| 2026-05-05 12:24 | -34.51041 | 150.84331 | 14016 ft | 242 kts | 223° |
| 2026-05-05 12:24 | -34.52289 | 150.82972 | 14017 ft | 245 kts | 223° |
| 2026-05-05 12:25 | -34.53568 | 150.81581 | 14013 ft | 248 kts | 223° |
| 2026-05-05 12:25 | -34.54862 | 150.80175 | 14013 ft | 249 kts | 223° |
| 2026-05-05 12:25 | -34.56042 | 150.78889 | 14013 ft | 249 kts | 224° |
| 2026-05-05 12:25 | -34.57142 | 150.77259 | 14014 ft | 250 kts | 236° |
| 2026-05-05 12:26 | -34.58093 | 150.75501 | 14013 ft | 251 kts | 237° |
| 2026-05-05 12:26 | -34.59056 | 150.73716 | 14022 ft | 253 kts | 237° |
| 2026-05-05 12:26 | -34.60064 | 150.71957 | 14019 ft | 253 kts | 235° |
| 2026-05-05 12:26 | -34.61112 | 150.70227 | 14014 ft | 253 kts | 234° |
| 2026-05-05 12:27 | -34.62147 | 150.68520 | 14029 ft | 254 kts | 234° |
| 2026-05-05 12:27 | -34.63193 | 150.66784 | 14022 ft | 254 kts | 234° |
| 2026-05-05 12:27 | -34.64231 | 150.65061 | 14017 ft | 254 kts | 234° |
| 2026-05-05 12:27 | -34.65281 | 150.63316 | 14034 ft | 255 kts | 234° |
| 2026-05-05 12:28 | -34.66333 | 150.61569 | 14036 ft | 255 kts | 234° |
| 2026-05-05 12:28 | -34.67371 | 150.59841 | 14037 ft | 256 kts | 234° |
| 2026-05-05 12:28 | -34.68425 | 150.58089 | 14028 ft | 256 kts | 234° |
| 2026-05-05 12:28 | -34.69466 | 150.56355 | 14029 ft | 256 kts | 234° |
| 2026-05-05 12:29 | -34.70520 | 150.54599 | 14029 ft | 256 kts | 234° |
| 2026-05-05 12:29 | -34.71570 | 150.52852 | 14022 ft | 256 kts | 234° |
| 2026-05-05 12:29 | -34.72612 | 150.51114 | 14036 ft | 256 kts | 234° |
| 2026-05-05 12:29 | -34.73666 | 150.49354 | 14038 ft | 256 kts | 234° |
| 2026-05-05 12:30 | -34.74706 | 150.47618 | 14036 ft | 256 kts | 234° |
| 2026-05-05 12:30 | -34.75755 | 150.45868 | 14034 ft | 256 kts | 234° |
| 2026-05-05 12:30 | -34.76800 | 150.44120 | 14039 ft | 255 kts | 234° |
| 2026-05-05 12:30 | -34.77854 | 150.42359 | 14044 ft | 256 kts | 234° |
| 2026-05-05 12:31 | -34.78893 | 150.40627 | 14037 ft | 256 kts | 234° |
| 2026-05-05 12:31 | -34.79942 | 150.38870 | 14051 ft | 256 kts | 234° |
| 2026-05-05 12:31 | -34.80988 | 150.37120 | 14060 ft | 256 kts | 234° |
| 2026-05-05 12:31 | -34.82040 | 150.35357 | 14052 ft | 256 kts | 234° |
| 2026-05-05 12:32 | -34.83089 | 150.33599 | 14048 ft | 257 kts | 234° |
| 2026-05-05 12:32 | -34.84126 | 150.31865 | 14050 ft | 257 kts | 234° |
| 2026-05-05 12:32 | -34.84825 | 150.30691 | 14050 ft | 257 kts | 234° |
| 2026-05-05 12:32 | -34.86225 | 150.28339 | 14055 ft | 257 kts | 234° |
| 2026-05-05 12:33 | -34.86921 | 150.27175 | 14059 ft | 257 kts | 234° |
| 2026-05-05 12:33 | -34.87972 | 150.25408 | 14052 ft | 257 kts | 234° |
| 2026-05-05 12:33 | -34.89025 | 150.23639 | 14053 ft | 257 kts | 234° |
| 2026-05-05 12:33 | -34.90065 | 150.21890 | 14053 ft | 257 kts | 234° |
| 2026-05-05 12:34 | -34.91116 | 150.20120 | 14052 ft | 257 kts | 234° |
| 2026-05-05 12:34 | -34.92162 | 150.18365 | 14050 ft | 257 kts | 234° |
| 2026-05-05 12:34 | -34.93213 | 150.16596 | 14059 ft | 257 kts | 234° |
| 2026-05-05 12:34 | -34.94252 | 150.14845 | 14060 ft | 256 kts | 234° |
| 2026-05-05 12:35 | -34.95305 | 150.13068 | 14059 ft | 256 kts | 234° |
| 2026-05-05 12:35 | -34.96339 | 150.11324 | 14060 ft | 256 kts | 234° |
| 2026-05-05 12:35 | -34.97384 | 150.09567 | 14062 ft | 256 kts | 234° |
| 2026-05-05 12:35 | -34.98429 | 150.07802 | 14057 ft | 256 kts | 235° |
| 2026-05-05 12:36 | -34.99457 | 150.06063 | 14056 ft | 255 kts | 235° |
| 2026-05-05 12:36 | -35.00502 | 150.04301 | 14065 ft | 255 kts | 234° |
| 2026-05-05 12:36 | -35.01547 | 150.02535 | 14071 ft | 255 kts | 235° |
| 2026-05-05 12:36 | -35.02586 | 150.00775 | 14061 ft | 255 kts | 235° |
| 2026-05-05 12:37 | -35.03614 | 149.99038 | 14065 ft | 255 kts | 235° |
| 2026-05-05 12:37 | -35.04658 | 149.97272 | 14067 ft | 255 kts | 235° |
| 2026-05-05 12:37 | -35.05681 | 149.95532 | 14067 ft | 255 kts | 235° |
| 2026-05-05 12:37 | -35.06850 | 149.93893 | 14065 ft | 254 kts | 225° |
| 2026-05-05 12:38 | -35.08128 | 149.92401 | 14065 ft | 254 kts | 224° |
| 2026-05-05 12:38 | -35.09388 | 149.90932 | 14066 ft | 254 kts | 225° |
| 2026-05-05 12:38 | -35.10635 | 149.89391 | 14066 ft | 254 kts | 227° |
| 2026-05-05 12:38 | -35.11851 | 149.87813 | 14064 ft | 254 kts | 227° |
| 2026-05-05 12:39 | -35.13053 | 149.86253 | 14062 ft | 254 kts | 227° |
| 2026-05-05 12:39 | -35.14276 | 149.84674 | 14061 ft | 255 kts | 227° |
| 2026-05-05 12:39 | -35.15484 | 149.83113 | 14061 ft | 255 kts | 227° |
| 2026-05-05 12:39 | -35.16707 | 149.81537 | 14063 ft | 255 kts | 227° |
| 2026-05-05 12:40 | -35.17931 | 149.79953 | 14067 ft | 255 kts | 227° |
| 2026-05-05 12:40 | -35.19153 | 149.78362 | 14005 ft | 258 kts | 227° |
| 2026-05-05 12:40 | -35.20390 | 149.76763 | 13898 ft | 264 kts | 227° |
| 2026-05-05 12:40 | -35.21675 | 149.75103 | 13797 ft | 267 kts | 227° |
| 2026-05-05 12:41 | -35.22922 | 149.73482 | 13686 ft | 261 kts | 227° |
| 2026-05-05 12:41 | -35.24165 | 149.71875 | 13578 ft | 257 kts | 227° |
| 2026-05-05 12:41 | -35.25374 | 149.70311 | 13474 ft | 253 kts | 227° |
| 2026-05-05 12:41 | -35.26582 | 149.68746 | 13364 ft | 251 kts | 227° |
| 2026-05-05 12:42 | -35.27778 | 149.67193 | 13259 ft | 249 kts | 227° |
| 2026-05-05 12:42 | -35.28959 | 149.65661 | 13059 ft | 251 kts | 227° |
| 2026-05-05 12:42 | -35.30166 | 149.64090 | 12798 ft | 253 kts | 226° |
| 2026-05-05 12:42 | -35.31363 | 149.62538 | 12575 ft | 252 kts | 226° |
| 2026-05-05 12:43 | -35.32572 | 149.60973 | 12442 ft | 249 kts | 226° |
| 2026-05-05 12:43 | -35.33737 | 149.59470 | 12439 ft | 241 kts | 226° |
| 2026-05-05 12:43 | -35.34868 | 149.57988 | 12376 ft | 237 kts | 227° |
| 2026-05-05 12:43 | -35.36007 | 149.56492 | 12097 ft | 240 kts | 227° |
| 2026-05-05 12:44 | -35.37138 | 149.55012 | 11822 ft | 239 kts | 226° |
| 2026-05-05 12:44 | -35.38282 | 149.53525 | 11546 ft | 238 kts | 226° |
| 2026-05-05 12:44 | -35.39408 | 149.52063 | 11281 ft | 237 kts | 226° |
| 2026-05-05 12:44 | -35.40540 | 149.50587 | 11011 ft | 237 kts | 226° |
| 2026-05-05 12:45 | -35.41677 | 149.49106 | 10725 ft | 238 kts | 226° |
| 2026-05-05 12:45 | -35.42802 | 149.47639 | 10393 ft | 240 kts | 226° |
| 2026-05-05 12:45 | -35.43954 | 149.46135 | 10049 ft | 242 kts | 226° |
| 2026-05-05 12:45 | -35.45115 | 149.44623 | 9679 ft | 243 kts | 226° |
| 2026-05-05 12:46 | -35.46273 | 149.43106 | 9317 ft | 244 kts | 226° |
| 2026-05-05 12:46 | -35.47435 | 149.41571 | 8954 ft | 244 kts | 226° |
| 2026-05-05 12:46 | -35.48571 | 149.40056 | 8600 ft | 243 kts | 226° |
| 2026-05-05 12:46 | -35.49723 | 149.38529 | 8244 ft | 241 kts | 226° |
| 2026-05-05 12:47 | -35.50851 | 149.37046 | 7902 ft | 240 kts | 226° |
| 2026-05-05 12:47 | -35.51999 | 149.35547 | 7553 ft | 239 kts | 226° |
| 2026-05-05 12:47 | -35.53122 | 149.34082 | 7277 ft | 235 kts | 226° |
| 2026-05-05 12:47 | -35.54232 | 149.32631 | 7060 ft | 229 kts | 226° |
| 2026-05-05 12:48 | -35.55235 | 149.31147 | 6836 ft | 223 kts | 242° |
| 2026-05-05 12:48 | -35.55632 | 149.29335 | 6586 ft | 221 kts | 261° |
| 2026-05-05 12:48 | -35.55813 | 149.27497 | 6410 ft | 217 kts | 264° |
| 2026-05-05 12:48 | -35.55967 | 149.25643 | 6174 ft | 217 kts | 264° |
| 2026-05-05 12:49 | -35.56121 | 149.23830 | 6015 ft | 211 kts | 265° |
| 2026-05-05 12:49 | -35.55835 | 149.22129 | 5856 ft | 204 kts | 304° |
| 2026-05-05 12:49 | -35.54873 | 149.20888 | 5724 ft | 198 kts | 321° |
| 2026-05-05 12:49 | -35.53767 | 149.19923 | 5567 ft | 196 kts | 331° |
| 2026-05-05 12:50 | -35.52536 | 149.19305 | 5423 ft | 187 kts | 356° |
| 2026-05-05 12:50 | -35.51240 | 149.19292 | 5255 ft | 184 kts | 3° |
| 2026-05-05 12:50 | -35.49976 | 149.19342 | 5104 ft | 183 kts | 4° |
| 2026-05-05 12:50 | -35.48697 | 149.19384 | 4937 ft | 184 kts | 4° |
| 2026-05-05 12:51 | -35.47404 | 149.19425 | 4717 ft | 187 kts | 3° |
| 2026-05-05 12:51 | -35.46121 | 149.19457 | 4499 ft | 185 kts | 2° |
| 2026-05-05 12:51 | -35.44839 | 149.19469 | 4272 ft | 183 kts | 1° |
| 2026-05-05 12:51 | -35.43566 | 149.19474 | 4050 ft | 181 kts | 1° |
| 2026-05-05 12:52 | -35.42325 | 149.19476 | 3865 ft | 174 kts | 1° |
| 2026-05-05 12:52 | -35.41198 | 149.19476 | 3648 ft | 151 kts | 1° |
| 2026-05-05 12:52 | -35.40191 | 149.19477 | 3429 ft | 137 kts | 0° |
| 2026-05-05 12:52 | -35.39266 | 149.19473 | 3232 ft | 134 kts | 0° |
| 2026-05-05 12:53 | -35.38331 | 149.19461 | 3057 ft | 134 kts | 360° |
| 2026-05-05 12:53 | -35.37406 | 149.19449 | 2931 ft | 134 kts | 0° |
| 2026-05-05 12:53 | -35.36477 | 149.19443 | 2756 ft | 132 kts | 0° |
| 2026-05-05 12:53 | -35.35563 | 149.19439 | 2587 ft | 130 kts | 0° |
| 2026-05-05 12:54 | -35.33780 | 149.19439 | 2289 ft | 128 kts | 0° |
| 2026-05-05 12:54 | -35.32894 | 149.19417 | 2159 ft | 126 kts | 358° |
| 2026-05-05 12:54 | -35.32012 | 149.19400 | 2033 ft | 126 kts | 2° |
| 2026-05-05 12:55 | -35.31281 | 149.19432 | 1911 ft | 126 kts | 1° |
| 2026-05-05 12:55 | -35.30563 | 149.19444 | 1874 ft | 53 kts | 5° |
| 2026-05-05 12:55 | -35.30290 | 149.19444 | 1874 ft | 30 kts | 359° |
| 2026-05-05 12:55 | -35.30186 | 149.19412 | 1875 ft | 11 kts | 283° |
| 2026-05-05 12:56 | -35.30161 | 149.19329 | 1876 ft | 10 kts | 292° |
| 2026-05-05 12:56 | -35.30174 | 149.19252 | 1874 ft | 9 kts | 220° |
| 2026-05-05 12:56 | -35.30237 | 149.19238 | 1876 ft | 10 kts | 180° |
| 2026-05-05 12:56 | -35.30305 | 149.19239 | 1876 ft | 10 kts | 180° |
| 2026-05-05 12:57 | -35.30375 | 149.19239 | 1876 ft | 10 kts | 180° |
| 2026-05-05 12:57 | -35.30422 | 149.19239 | 1874 ft | 10 kts | 180° |
| 2026-05-05 12:58 | -35.30442 | 149.19239 | 1875 ft | 10 kts | 180° |
| 2026-05-05 12:59 | -35.30467 | 149.19239 | 1876 ft | 10 kts | 180° |
| 2026-05-05 12:59 | -35.30541 | 149.19239 | 1875 ft | 10 kts | 180° |
| 2026-05-05 12:59 | -35.30610 | 149.19238 | 1876 ft | 8 kts | 186° |
| 2026-05-05 13:00 | -35.30619 | 149.19136 | 1875 ft | 3 kts | 310° |
| 2026-05-05 13:00 | -35.30600 | 149.19108 | 1876 ft | 6 kts | 310° |
| 2026-05-05 13:01 | -35.30512 | 149.18977 | 1876 ft | 5 kts | 292° |
| 2026-05-05 13:01 | -35.30527 | 149.18945 | 1876 ft | 5 kts | 221° |
| 2026-05-05 13:01 | -35.30565 | 149.18924 | 1876 ft | 6 kts | 202° |
| 2026-05-05 13:01 | -35.30583 | 149.18915 | 1876 ft | 0 kts | 201° |